createdAt,value
2022-09-15T00:01:09.988Z,98817.91
2022-09-15T00:03:37.061Z,98811.09
2022-09-15T00:06:05.917Z,98808.16
2022-09-15T00:08:33.589Z,98815.28
2022-09-15T00:11:21.153Z,98817.72
2022-09-15T00:13:48.887Z,98817.72
2022-09-15T00:16:17.172Z,98815.78
2022-09-15T00:18:45.861Z,98812.13
2022-09-15T00:21:16.749Z,98814.41
2022-09-15T00:23:45.019Z,98812.91
2022-09-15T00:26:17.562Z,98812.47
2022-09-15T00:28:44.880Z,98813.94
2022-09-15T00:31:26.492Z,98819.53
2022-09-15T00:33:55.834Z,98814.41
2022-09-15T00:36:24.651Z,98819.03
2022-09-15T00:38:52.195Z,98823.53
2022-09-15T00:41:22.066Z,98826.25
2022-09-15T00:43:56.607Z,98823.38
2022-09-15T00:46:31.011Z,98830.25
2022-09-15T00:48:58.296Z,98835.94
2022-09-15T00:51:46.202Z,98840.34
2022-09-15T00:54:33.775Z,98831.13
2022-09-15T00:57:05.412Z,98826.03
2022-09-15T01:02:25.310Z,98824.38
2022-09-15T01:04:58.415Z,98827.56
2022-09-15T01:07:41.252Z,98819.28
2022-09-15T01:10:14.899Z,98826.38
2022-09-15T01:12:42.967Z,98816.13
2022-09-15T01:15:10.876Z,98809.06
2022-09-15T01:18:10.654Z,98809.06
2022-09-15T01:20:56.943Z,98806.16
2022-09-15T01:23:31.724Z,98806.63
2022-09-15T01:26:34.458Z,98812.53
2022-09-15T01:29:40.499Z,98815.44
2022-09-15T01:32:34.869Z,98805.94
2022-09-15T01:35:26.084Z,98804.69
2022-09-15T01:37:59.564Z,98807.16
2022-09-15T01:40:33.560Z,98804.47
2022-09-15T01:43:02.723Z,98805.44
2022-09-15T01:45:33.548Z,98800.06
2022-09-15T01:48:03.660Z,98801.78
2022-09-15T01:50:36.994Z,98803.25
2022-09-15T01:53:12.628Z,98804.69
2022-09-15T01:55:44.963Z,98802.25
2022-09-15T01:58:12.400Z,98802.97
2022-09-15T02:00:46.952Z,98797.38
2022-09-15T02:03:26.600Z,98797.63
2022-09-15T02:06:02.559Z,98793.03
2022-09-15T02:08:41.051Z,98796.97
2022-09-15T02:11:19.287Z,98790.13
2022-09-15T02:14:11.129Z,98794.72
2022-09-15T02:16:42.263Z,98795.97
2022-09-15T02:19:12.928Z,98793.94
2022-09-15T02:21:44.114Z,98800.78
2022-09-15T02:24:19.192Z,98795.13
2022-09-15T02:26:49.888Z,98791.22
2022-09-15T02:29:21.745Z,98779.03
2022-09-15T02:31:52.900Z,98777.06
2022-09-15T02:34:26.200Z,98774.81
2022-09-15T02:36:54.742Z,98767.28
2022-09-15T02:39:28.112Z,98756.78
2022-09-15T02:41:55.909Z,98760.50
2022-09-15T02:44:23.941Z,98758.28
2022-09-15T02:46:51.810Z,98753.19
2022-09-15T02:49:20.744Z,98743.91
2022-09-15T02:51:48.824Z,98749.22
2022-09-15T02:54:16.598Z,98749.66
2022-09-15T02:56:44.000Z,98738.94
2022-09-15T02:59:11.835Z,98742.16
2022-09-15T03:01:40.285Z,98746.28
2022-09-15T03:04:07.958Z,98743.59
2022-09-15T03:06:35.815Z,98743.09
2022-09-15T03:09:07.333Z,98744.53
2022-09-15T03:11:35.861Z,98741.84
2022-09-15T03:14:06.555Z,98738.66
2022-09-15T03:16:35.477Z,98738.91
2022-09-15T03:19:03.873Z,98736.94
2022-09-15T03:21:31.794Z,98740.59
2022-09-15T03:26:27.011Z,98738.84
2022-09-15T03:28:54.288Z,98744.44
2022-09-15T03:31:21.850Z,98735.63
2022-09-15T03:33:49.354Z,98736.88
2022-09-15T03:36:16.841Z,98732.44
2022-09-15T03:38:44.179Z,98729.28
2022-09-15T03:41:13.215Z,98728.81
2022-09-15T03:43:41.824Z,98734.47
2022-09-15T03:46:11.839Z,98725.22
2022-09-15T03:48:40.975Z,98716.72
2022-09-15T03:51:10.840Z,98727.47
2022-09-15T03:53:40.443Z,98724.53
2022-09-15T03:56:25.958Z,98728.03
2022-09-15T03:58:55.097Z,98725.09
2022-09-15T04:01:23.928Z,98727.56
2022-09-15T04:03:51.920Z,98737.31
2022-09-15T04:06:21.513Z,98727.06
2022-09-15T04:08:49.822Z,98727.84
2022-09-15T04:11:18.972Z,98724.66
2022-09-15T04:13:47.566Z,98721.75
2022-09-15T04:16:23.675Z,98726.13
2022-09-15T04:18:56.412Z,98732.50
2022-09-15T04:21:26.853Z,98728.56
2022-09-15T04:23:54.820Z,98722.19
2022-09-15T04:26:22.339Z,98737.31
2022-09-15T04:28:50.199Z,98741.44
2022-09-15T04:31:19.022Z,98745.59
2022-09-15T04:33:47.787Z,98748.06
2022-09-15T04:36:19.185Z,98748.34
2022-09-15T04:38:48.462Z,98743.97
2022-09-15T04:41:16.631Z,98751.50
2022-09-15T04:43:45.034Z,98746.13
2022-09-15T04:46:14.226Z,98747.63
2022-09-15T04:48:42.314Z,98748.59
2022-09-15T04:51:16.400Z,98744.47
2022-09-15T04:53:45.048Z,98752.06
2022-09-15T04:56:22.099Z,98763.31
2022-09-15T04:58:53.204Z,98761.84
2022-09-15T05:01:24.802Z,98771.63
2022-09-15T05:03:53.531Z,98767.72
2022-09-15T05:06:24.193Z,98763.81
2022-09-15T05:08:54.640Z,98768.72
2022-09-15T05:11:23.538Z,98769.44
2022-09-15T05:13:52.012Z,98770.41
2022-09-15T05:16:23.582Z,98778.69
2022-09-15T05:18:52.892Z,98783.28
2022-09-15T05:21:22.515Z,98786.94
2022-09-15T05:23:54.447Z,98782.78
2022-09-15T05:26:27.584Z,98788.16
2022-09-15T05:28:55.520Z,98784.53
2022-09-15T05:31:26.487Z,98787.66
2022-09-15T05:33:54.946Z,98784.19
2022-09-15T05:36:25.552Z,98786.66
2022-09-15T05:38:57.086Z,98786.72
2022-09-15T05:41:26.772Z,98786.72
2022-09-15T05:43:57.285Z,98784.03
2022-09-15T05:46:26.446Z,98782.28
2022-09-15T05:48:57.099Z,98793.50
2022-09-15T05:51:25.292Z,98784.47
2022-09-15T05:53:53.181Z,98782.28
2022-09-15T05:56:21.141Z,98779.09
2022-09-15T05:58:49.804Z,98787.66
2022-09-15T06:01:30.300Z,98792.56
2022-09-15T06:03:58.231Z,98788.94
2022-09-15T06:06:26.408Z,98789.19
2022-09-15T06:08:58.413Z,98795.31
2022-09-15T06:11:31.249Z,98793.13
2022-09-15T06:14:03.581Z,98800.47
2022-09-15T06:16:33.482Z,98801.41
2022-09-15T06:19:04.042Z,98806.78
2022-09-15T06:21:32.998Z,98803.63
2022-09-15T06:24:03.741Z,98809.50
2022-09-15T06:26:31.044Z,98805.13
2022-09-15T06:29:01.418Z,98812.50
2022-09-15T06:31:31.800Z,98806.38
2022-09-15T06:33:59.503Z,98814.22
2022-09-15T06:36:29.329Z,98815.69
2022-09-15T06:38:57.265Z,98813.47
2022-09-15T06:41:24.586Z,98817.91
2022-09-15T06:43:52.211Z,98815.47
2022-09-15T06:46:25.315Z,98823.53
2022-09-15T06:48:53.775Z,98818.19
2022-09-15T06:51:25.992Z,98818.22
2022-09-15T06:53:54.528Z,98818.69
2022-09-15T06:56:23.488Z,98815.06
2022-09-15T06:58:50.878Z,98819.19
2022-09-15T07:01:24.085Z,98817.22
2022-09-15T07:03:51.834Z,98825.25
2022-09-15T07:06:19.530Z,98828.22
2022-09-15T07:08:47.016Z,98830.63
2022-09-15T07:11:14.871Z,98836.75
2022-09-15T07:13:42.554Z,98833.06
2022-09-15T07:16:11.589Z,98836.75
2022-09-15T07:18:43.083Z,98835.28
2022-09-15T07:21:16.544Z,98836.53
2022-09-15T07:23:44.131Z,98833.84
2022-09-15T07:26:18.592Z,98836.00
2022-09-15T07:28:50.200Z,98839.88
2022-09-15T07:31:19.783Z,98842.56
2022-09-15T07:33:47.369Z,98842.75
2022-09-15T07:36:15.050Z,98842.03
2022-09-15T07:38:44.337Z,98844.91
2022-09-15T07:41:13.932Z,98853.22
2022-09-15T07:43:41.218Z,98843.69
2022-09-15T07:46:08.316Z,98849.28
2022-09-15T07:48:35.360Z,98850.47
2022-09-15T07:51:02.499Z,98856.34
2022-09-15T07:53:30.465Z,98843.38
2022-09-15T07:55:58.038Z,98853.13
2022-09-15T07:58:25.790Z,98854.81
2022-09-15T08:00:53.102Z,98862.59
2022-09-15T08:03:20.201Z,98861.19
2022-09-15T08:05:47.294Z,98864.56
2022-09-15T08:08:14.346Z,98865.75
2022-09-15T08:10:42.094Z,98873.53
2022-09-15T08:13:09.335Z,98877.44
2022-09-15T08:15:37.813Z,98874.22
2022-09-15T08:18:06.510Z,98866.16
2022-09-15T08:20:34.102Z,98869.09
2022-09-15T08:23:01.605Z,98868.84
2022-09-15T08:25:29.796Z,98869.09
2022-09-15T08:27:57.319Z,98879.84
2022-09-15T08:30:25.084Z,98889.88
2022-09-15T08:32:52.585Z,98888.41
2022-09-15T08:35:20.556Z,98893.50
2022-09-15T08:37:48.198Z,98897.16
2022-09-15T08:40:27.855Z,98898.31
2022-09-15T08:43:00.147Z,98906.09
2022-09-15T08:45:34.891Z,98911.94
2022-09-15T08:48:05.694Z,98913.38
2022-09-15T08:50:39.170Z,98910.22
2022-09-15T08:53:30.398Z,98903.66
2022-09-15T08:56:00.780Z,98907.09
2022-09-15T08:58:31.844Z,98918.47
2022-09-15T09:01:01.947Z,98908.91
2022-09-15T09:03:55.275Z,98920.78
2022-09-15T09:06:40.177Z,98923.88
2022-09-15T09:09:24.093Z,98918.66
2022-09-15T09:11:59.454Z,98916.47
2022-09-15T09:14:32.812Z,98915.44
2022-09-15T09:17:24.864Z,98927.88
2022-09-15T09:19:58.994Z,98925.75
2022-09-15T09:22:30.711Z,98928.97
2022-09-15T09:25:11.554Z,98925.81
2022-09-15T09:27:39.996Z,98927.75
2022-09-15T09:30:15.098Z,98934.34
2022-09-15T09:33:00.668Z,98934.53
2022-09-15T09:35:41.651Z,98935.28
2022-09-15T09:38:10.566Z,98935.44
2022-09-15T09:40:41.490Z,98943.47
2022-09-15T09:43:09.427Z,98937.56
2022-09-15T09:45:36.494Z,98936.06
2022-09-15T09:48:13.575Z,98935.53
2022-09-15T09:50:44.525Z,98924.75
2022-09-15T09:53:25.971Z,98937.09
2022-09-15T09:55:55.529Z,98928.28
2022-09-15T09:58:25.566Z,98933.13
2022-09-15T10:00:53.580Z,98938.69
2022-09-15T10:03:23.553Z,98941.25
2022-09-15T10:06:13.870Z,98943.19
2022-09-15T10:09:04.437Z,98956.28
2022-09-15T10:11:51.791Z,98957.50
2022-09-15T10:14:42.247Z,98953.38
2022-09-15T10:17:23.704Z,98955.25
2022-09-15T10:19:56.485Z,98965.94
2022-09-15T10:22:29.282Z,98974.66
2022-09-15T10:24:56.700Z,98980.81
2022-09-15T10:27:30.311Z,98978.69
2022-09-15T10:29:59.742Z,98982.09
2022-09-15T10:32:32.036Z,98980.31
2022-09-15T10:35:01.690Z,98985.22
2022-09-15T10:37:49.075Z,98983.50
2022-09-15T10:40:27.920Z,98994.03
2022-09-15T10:43:19.906Z,98986.03
2022-09-15T10:45:59.048Z,98994.88
2022-09-15T10:48:36.765Z,98996.91
2022-09-15T10:51:25.405Z,98991.53
2022-09-15T10:54:24.716Z,98987.56
2022-09-15T10:56:58.884Z,98993.88
2022-09-15T10:59:25.939Z,98989.88
2022-09-15T11:02:26.871Z,98988.53
2022-09-15T11:05:00.793Z,98985.31
2022-09-15T11:07:41.705Z,98992.38
2022-09-15T11:10:32.611Z,98987.09
2022-09-15T11:13:44.794Z,98980.31
2022-09-15T11:16:49.391Z,98982.84
2022-09-15T11:19:28.469Z,98978.34
2022-09-15T11:22:21.057Z,98976.31
2022-09-15T11:24:55.274Z,98970.34
2022-09-15T11:27:41.578Z,98968.31
2022-09-15T11:30:29.975Z,98960.88
2022-09-15T11:32:58.106Z,98960.13
2022-09-15T11:35:37.242Z,98959.06
2022-09-15T11:38:24.576Z,98951.16
2022-09-15T11:41:14.967Z,98959.16
2022-09-15T11:43:55.734Z,98954.19
2022-09-15T11:47:05.799Z,98962.78
2022-09-15T11:49:44.499Z,98961.00
2022-09-15T11:52:29.917Z,98958.06
2022-09-15T11:55:07.508Z,98957.75
2022-09-15T11:57:45.352Z,98961.94
2022-09-15T12:00:14.996Z,98957.25
2022-09-15T12:02:48.673Z,98960.69
2022-09-15T12:05:26.307Z,98953.97
2022-09-15T12:08:02.871Z,98946.47
2022-09-15T12:10:40.010Z,98941.63
2022-09-15T12:13:11.848Z,98936.69
2022-09-15T12:15:39.102Z,98934.31
2022-09-15T12:18:37.335Z,98943.03
2022-09-15T12:21:35.429Z,98931.09
2022-09-15T12:24:08.339Z,98935.97
2022-09-15T12:26:35.956Z,98926.94
2022-09-15T12:29:34.993Z,98923.63
2022-09-15T12:32:29.717Z,98921.25
2022-09-15T12:35:12.819Z,98916.59
2022-09-15T12:37:45.951Z,98917.72
2022-09-15T12:40:33.831Z,98909.88
2022-09-15T12:43:18.921Z,98906.66
2022-09-15T12:46:17.472Z,98899.00
2022-09-15T12:48:47.427Z,98900.84
2022-09-15T12:51:25.439Z,98903.97
2022-09-15T12:54:00.949Z,98900.25
2022-09-15T12:56:31.431Z,98899.81
2022-09-15T12:59:06.770Z,98905.31
2022-09-15T13:01:50.170Z,98901.47
2022-09-15T13:04:41.701Z,98902.59
2022-09-15T13:07:18.762Z,98898.72
2022-09-15T13:09:57.434Z,98899.19
2022-09-15T13:12:30.966Z,98893.47
2022-09-15T13:15:00.281Z,98894.84
2022-09-15T13:17:29.720Z,98886.66
2022-09-15T13:20:18.418Z,98893.56
2022-09-15T13:22:50.267Z,98893.88
2022-09-15T13:25:23.797Z,98898.75
2022-09-15T13:28:02.952Z,98890.84
2022-09-15T13:31:10.645Z,98895.13
2022-09-15T13:40:00.114Z,98885.41
2022-09-15T13:42:42.801Z,98892.66
2022-09-15T13:45:19.321Z,98886.50
2022-09-15T13:48:14.805Z,98878.28
2022-09-15T13:50:50.433Z,98877.34
2022-09-15T13:53:21.008Z,98873.38
2022-09-15T13:55:48.595Z,98872.75
2022-09-15T14:01:13.525Z,98867.16
2022-09-15T14:03:46.345Z,98865.78
2022-09-15T14:06:15.602Z,98861.69
2022-09-15T14:08:44.284Z,98867.00
2022-09-15T14:11:17.293Z,98871.06
2022-09-15T14:13:47.865Z,98864.47
2022-09-15T14:16:26.929Z,98872.25
2022-09-15T14:18:57.894Z,98865.41
2022-09-15T14:21:28.191Z,98860.47
2022-09-15T14:23:58.271Z,98868.56
2022-09-15T14:26:28.632Z,98856.94
2022-09-15T14:29:07.196Z,98855.00
2022-09-15T14:31:41.284Z,98844.19
2022-09-15T14:34:17.901Z,98846.69
2022-09-15T14:36:45.154Z,98846.09
2022-09-15T14:39:12.222Z,98840.38
2022-09-15T14:41:40.472Z,98831.72
2022-09-15T14:47:21.035Z,98828.63
2022-09-15T14:49:48.315Z,98829.19
2022-09-15T14:52:24.537Z,98809.56
2022-09-15T14:54:56.547Z,98816.72
2022-09-15T14:57:30.879Z,98819.00
2022-09-15T15:00:03.902Z,98818.00
2022-09-15T15:02:49.327Z,98825.75
2022-09-15T15:05:47.462Z,98823.06
2022-09-15T15:08:30.315Z,98829.38
2022-09-15T15:10:58.491Z,98829.06
2022-09-15T15:13:25.790Z,98826.53
2022-09-15T15:15:53.215Z,98825.69
2022-09-15T15:18:36.848Z,98824.09
2022-09-15T15:21:03.979Z,98827.56
2022-09-15T15:23:32.479Z,98831.84
2022-09-15T15:26:26.584Z,98835.06
2022-09-15T15:28:53.631Z,98827.81
2022-09-15T15:31:27.162Z,98831.25
2022-09-15T15:33:59.620Z,98825.59
2022-09-15T15:36:28.929Z,98830.53
2022-09-15T15:39:01.974Z,98824.81
2022-09-15T15:41:41.181Z,98826.72
2022-09-15T15:44:29.697Z,98813.38
2022-09-15T15:47:02.060Z,98829.25
2022-09-15T15:49:33.837Z,98835.44
2022-09-15T15:52:02.067Z,98835.78
2022-09-15T15:54:29.642Z,98840.13
2022-09-15T15:57:19.993Z,98833.63
2022-09-15T15:59:47.303Z,98840.84
2022-09-15T16:02:14.452Z,98828.91
2022-09-15T16:04:41.561Z,98826.22
2022-09-15T16:07:15.829Z,98828.19
2022-09-15T16:09:43.982Z,98834.84
2022-09-15T16:12:11.011Z,98831.78
2022-09-15T16:14:38.036Z,98832.47
2022-09-15T16:17:05.155Z,98825.09
2022-09-15T16:19:32.361Z,98822.50
2022-09-15T16:22:01.890Z,98821.66
2022-09-15T16:24:29.231Z,98801.97
2022-09-15T16:26:56.259Z,98800.69
2022-09-15T16:29:28.060Z,98794.47
2022-09-15T16:31:55.443Z,98799.59
2022-09-15T16:34:22.946Z,98819.47
2022-09-15T16:36:49.970Z,98799.53
2022-09-15T16:39:17.080Z,98826.59
2022-09-15T16:41:44.506Z,98804.59
2022-09-15T16:44:19.521Z,98833.88
2022-09-15T16:46:46.645Z,98807.66
2022-09-15T16:49:13.733Z,98816.00
2022-09-15T16:51:40.766Z,98801.31
2022-09-15T16:54:18.135Z,98822.09
2022-09-15T16:56:46.393Z,98812.13
2022-09-15T16:59:13.788Z,98804.44
2022-09-15T17:01:41.576Z,98803.25
2022-09-15T17:04:16.918Z,98799.44
2022-09-15T17:06:44.160Z,98807.28
2022-09-15T17:09:11.546Z,98804.75
2022-09-15T17:11:38.667Z,98801.78
2022-09-15T17:14:05.746Z,98803.53
2022-09-15T17:16:32.988Z,98800.22
2022-09-15T17:19:00.047Z,98801.56
2022-09-15T17:21:27.561Z,98807.28
2022-09-15T17:23:54.612Z,98796.19
2022-09-15T17:26:31.077Z,98792.78
2022-09-15T17:28:58.599Z,98794.16
2022-09-15T17:31:26.134Z,98803.91
2022-09-15T17:33:53.434Z,98804.91
2022-09-15T17:36:20.734Z,98803.31
2022-09-15T17:38:49.286Z,98807.06
2022-09-15T17:41:18.538Z,98802.28
2022-09-15T17:43:46.122Z,98801.09
2022-09-15T17:46:13.352Z,98795.69
2022-09-15T17:48:40.439Z,98794.94
2022-09-15T17:51:08.486Z,98801.09
2022-09-15T17:53:35.598Z,98797.81
2022-09-15T17:56:02.707Z,98796.19
2022-09-15T17:58:31.626Z,98796.22
2022-09-15T18:00:59.001Z,98805.59
2022-09-15T18:03:29.307Z,98805.81
2022-09-15T18:05:58.810Z,98807.78
2022-09-15T18:08:27.139Z,98802.91
2022-09-15T18:10:54.608Z,98810.47
2022-09-15T18:13:24.807Z,98810.13
2022-09-15T18:15:51.870Z,98817.34
2022-09-15T18:18:21.929Z,98823.69
2022-09-15T18:20:51.337Z,98811.94
2022-09-15T18:23:21.005Z,98809.97
2022-09-15T18:25:48.483Z,98817.94
2022-09-15T18:28:16.578Z,98815.22
2022-09-15T18:30:46.101Z,98812.66
2022-09-15T18:33:16.029Z,98809.94
2022-09-15T18:35:44.135Z,98821.63
2022-09-15T18:38:11.575Z,98814.41
2022-09-15T18:40:38.944Z,98819.41
2022-09-15T18:43:06.010Z,98814.34
2022-09-15T18:45:33.089Z,98822.97
2022-09-15T18:48:00.526Z,98821.31
2022-09-15T18:50:27.870Z,98817.03
2022-09-15T18:52:55.010Z,98807.75
2022-09-15T18:55:23.253Z,98810.34
2022-09-15T18:57:50.347Z,98820.59
2022-09-15T19:00:20.573Z,98811.31
2022-09-15T19:02:48.063Z,98808.06
2022-09-15T19:05:15.967Z,98806.47
2022-09-15T19:07:44.346Z,98804.94
2022-09-15T19:10:13.451Z,98799.69
2022-09-15T19:12:41.163Z,98805.69
2022-09-15T19:15:11.393Z,98805.38
2022-09-15T19:17:39.714Z,98812.03
2022-09-15T19:20:08.750Z,98813.91
2022-09-15T19:22:36.951Z,98811.59
2022-09-15T19:25:06.677Z,98813.31
2022-09-15T19:27:33.844Z,98818.91
2022-09-15T19:30:01.321Z,98810.38
2022-09-15T19:32:29.792Z,98810.47
2022-09-15T19:34:56.796Z,98820.06
2022-09-15T19:37:24.063Z,98825.72
2022-09-15T19:39:51.236Z,98828.41
2022-09-15T19:42:18.318Z,98825.50
2022-09-15T19:44:45.437Z,98828.72
2022-09-15T19:47:12.624Z,98824.84
2022-09-15T19:49:39.669Z,98826.19
2022-09-15T19:52:06.843Z,98827.94
2022-09-15T19:54:37.576Z,98839.63
2022-09-15T19:57:04.833Z,98829.69
2022-09-15T19:59:32.264Z,98834.13
2022-09-15T20:02:00.701Z,98841.19
2022-09-15T20:07:13.224Z,98839.34
2022-09-15T20:09:40.260Z,98841.00
2022-09-15T20:12:07.624Z,98850.09
2022-09-15T20:14:34.705Z,98851.22
2022-09-15T20:17:01.948Z,98869.31
2022-09-15T20:19:30.149Z,98870.34
2022-09-15T20:21:57.321Z,98873.81
2022-09-15T20:24:25.088Z,98876.28
2022-09-15T20:26:52.261Z,98885.19
2022-09-15T20:29:20.446Z,98890.41
2022-09-15T20:31:48.110Z,98890.66
2022-09-15T20:34:15.263Z,98894.59
2022-09-15T20:36:42.442Z,98903.47
2022-09-15T20:39:13.488Z,98892.47
2022-09-15T20:41:45.216Z,98902.47
2022-09-15T20:44:12.763Z,98910.00
2022-09-15T20:46:40.363Z,98906.13
2022-09-15T20:49:07.723Z,98905.81
2022-09-15T20:51:34.771Z,98903.56
2022-09-15T20:54:04.441Z,98917.75
2022-09-15T20:56:35.291Z,98917.03
2022-09-15T20:59:04.179Z,98914.09
2022-09-15T21:01:37.400Z,98924.88
2022-09-15T21:04:06.565Z,98919.47
2022-09-15T21:06:34.358Z,98925.09
2022-09-15T21:09:01.364Z,98920.97
2022-09-15T21:11:30.342Z,98920.97
2022-09-15T21:13:57.980Z,98919.28
2022-09-15T21:16:27.715Z,98919.81
2022-09-15T21:18:57.008Z,98924.44
2022-09-15T21:21:26.171Z,98938.41
2022-09-15T21:24:04.128Z,98920.47
2022-09-15T21:26:58.393Z,98932.22
2022-09-15T21:29:25.584Z,98928.81
2022-09-15T21:31:53.067Z,98928.28
2022-09-15T21:34:20.490Z,98934.41
2022-09-15T21:36:47.561Z,98935.22
2022-09-15T21:39:14.632Z,98938.91
2022-09-15T21:41:41.825Z,98933.28
2022-09-15T21:44:09.622Z,98924.72
2022-09-15T21:46:36.736Z,98939.22
2022-09-15T21:49:03.864Z,98933.84
2022-09-15T21:51:31.180Z,98932.63
2022-09-15T21:53:59.921Z,98935.31
2022-09-15T21:56:28.967Z,98937.81
2022-09-15T21:58:56.081Z,98936.06
2022-09-15T22:01:28.184Z,98935.75
2022-09-15T22:03:58.849Z,98927.47
2022-09-15T22:06:31.960Z,98939.50
2022-09-15T22:09:08.052Z,98936.44
2022-09-15T22:11:35.586Z,98936.44
2022-09-15T22:14:08.333Z,98936.88
2022-09-15T22:16:40.023Z,98939.06
2022-09-15T22:19:09.866Z,98942.25
2022-09-15T22:21:39.826Z,98943.59
2022-09-15T22:24:07.399Z,98940.19
2022-09-15T22:26:36.772Z,98939.47
2022-09-15T22:29:04.861Z,98939.47
2022-09-15T22:31:31.992Z,98941.38
2022-09-15T22:33:59.081Z,98939.34
2022-09-15T22:36:29.583Z,98936.44
2022-09-15T22:39:06.414Z,98930.50
2022-09-15T22:41:38.873Z,98933.63
2022-09-15T22:44:07.018Z,98938.22
2022-09-15T22:46:35.000Z,98932.41
2022-09-15T22:49:02.143Z,98935.31
2022-09-15T22:51:29.184Z,98935.03
2022-09-15T22:53:57.614Z,98922.31
2022-09-15T22:56:26.614Z,98930.16
2022-09-15T22:58:54.636Z,98932.63
2022-09-15T23:01:27.301Z,98919.38
2022-09-15T23:04:01.067Z,98918.88
2022-09-15T23:06:31.090Z,98920.06
2022-09-15T23:09:01.215Z,98925.19
2022-09-15T23:11:29.587Z,98918.06
2022-09-15T23:13:57.139Z,98919.72
2022-09-15T23:16:25.400Z,98912.09
2022-09-15T23:18:53.603Z,98898.38
2022-09-15T23:21:21.173Z,98901.66
2022-09-15T23:23:49.525Z,98900.00
2022-09-15T23:26:18.783Z,98899.56
2022-09-15T23:28:45.824Z,98897.84
2022-09-15T23:31:13.875Z,98898.88
2022-09-15T23:33:41.682Z,98893.72
2022-09-15T23:36:12.605Z,98896.34
2022-09-15T23:38:41.127Z,98875.56
2022-09-15T23:41:08.685Z,98875.28
2022-09-15T23:43:36.228Z,98878.16
2022-09-15T23:46:04.388Z,98877.16
2022-09-15T23:48:34.587Z,98875.19
2022-09-15T23:51:02.386Z,98887.63
2022-09-15T23:53:30.048Z,98878.53
2022-09-15T23:55:57.164Z,98882.91
2022-09-15T23:58:24.485Z,98891.22
